createdAt,value
2019-04-19T00:01:49.216Z,47.39
2019-04-19T00:04:16.454Z,47.24
2019-04-19T00:06:45.984Z,47.16
2019-04-19T00:09:28.398Z,47.51
2019-04-19T00:11:52.331Z,47.78
2019-04-19T00:14:13.321Z,47.90
2019-04-19T00:16:42.699Z,48.20
2019-04-19T00:19:30.592Z,48.31
2019-04-19T00:22:03.547Z,48.32
2019-04-19T00:24:12.129Z,48.82
2019-04-19T00:26:40.628Z,48.87
2019-04-19T00:29:20.151Z,48.91
2019-04-19T00:31:47.928Z,49.06
2019-04-19T00:34:10.414Z,49.12
2019-04-19T00:36:38.856Z,49.23
2019-04-19T00:39:24.036Z,49.40
2019-04-19T00:42:01.554Z,49.53
2019-04-19T00:44:34.255Z,49.88
2019-04-19T00:47:02.824Z,50.25
2019-04-19T00:49:24.065Z,49.91
2019-04-19T00:52:01.166Z,50.34
2019-04-19T00:54:22.965Z,50.31
2019-04-19T00:56:53.152Z,50.21
2019-04-19T00:59:17.490Z,50.31
2019-04-19T01:01:46.887Z,50.47
2019-04-19T01:04:20.615Z,50.69
2019-04-19T01:06:50.885Z,50.57
2019-04-19T01:09:29.931Z,50.82
2019-04-19T01:12:00.334Z,50.83
2019-04-19T01:14:27.529Z,51.16
2019-04-19T01:17:02.590Z,51.10
2019-04-19T01:19:18.204Z,51.45
2019-04-19T01:21:46.989Z,51.80
2019-04-19T01:24:17.951Z,51.57
2019-04-19T01:26:49.476Z,51.79
2019-04-19T01:29:19.405Z,51.88
2019-04-19T01:31:49.542Z,52.15
2019-04-19T01:34:20.896Z,52.29
2019-04-19T01:36:48.468Z,52.44
2019-04-19T01:39:28.866Z,52.53
2019-04-19T01:41:58.073Z,52.87
2019-04-19T01:44:43.557Z,52.89
2019-04-19T01:47:25.908Z,53.38
2019-04-19T01:49:49.207Z,53.51
2019-04-19T01:52:35.106Z,53.58
2019-04-19T01:54:49.031Z,53.57
2019-04-19T01:57:08.022Z,53.81
2019-04-19T01:59:40.665Z,53.90
2019-04-19T02:02:11.689Z,54.04
2019-04-19T02:04:37.688Z,53.87
2019-04-19T02:07:12.565Z,53.73
2019-04-19T02:09:51.754Z,54.09
2019-04-19T02:12:22.522Z,54.24
2019-04-19T02:14:46.335Z,54.31
2019-04-19T02:17:10.311Z,54.17
2019-04-19T02:19:38.533Z,54.55
2019-04-19T02:22:15.214Z,55.06
2019-04-19T02:24:44.161Z,55.00
2019-04-19T02:27:10.047Z,55.09
2019-04-19T02:29:38.424Z,55.07
2019-04-19T02:32:29.886Z,55.08
2019-04-19T02:37:34.546Z,55.38
2019-04-19T02:45:04.596Z,55.41
2019-04-19T02:50:01.978Z,55.59
2019-04-19T02:55:12.487Z,55.69
2019-04-19T03:00:33.791Z,56.12
2019-04-19T03:05:22.432Z,56.39
2019-04-19T03:07:28.142Z,56.39
2019-04-19T03:09:57.953Z,56.97
2019-04-19T03:12:41.493Z,57.09
2019-04-19T03:17:44.559Z,57.56
2019-04-19T03:20:10.889Z,57.46
2019-04-19T03:22:43.566Z,57.56
2019-04-19T03:25:15.218Z,57.81
2019-04-19T03:27:40.880Z,57.88
2019-04-19T03:30:16.814Z,57.72
2019-04-19T03:33:07.169Z,57.98
2019-04-19T03:35:11.395Z,58.01
2019-04-19T03:37:53.045Z,58.03
2019-04-19T03:42:54.211Z,58.06
2019-04-19T03:45:28.976Z,58.01
2019-04-19T03:48:07.726Z,57.79
2019-04-19T03:51:08.952Z,57.93
2019-04-19T03:54:00.633Z,58.22
2019-04-19T03:56:34.532Z,58.02
2019-04-19T03:58:42.061Z,58.34
2019-04-19T04:01:37.807Z,58.70
2019-04-19T04:04:24.086Z,58.72
2019-04-19T04:07:15.467Z,59.19
2019-04-19T04:13:09.274Z,59.05
2019-04-19T04:16:11.535Z,58.98
2019-04-19T04:18:51.713Z,59.11
2019-04-19T04:21:27.174Z,59.32
2019-04-19T04:24:19.009Z,59.74
2019-04-19T04:26:53.089Z,59.37
2019-04-19T04:29:19.260Z,59.41
2019-04-19T04:31:53.353Z,59.69
2019-04-19T04:34:25.652Z,59.48
2019-04-19T04:37:17.020Z,59.61
2019-04-19T04:39:49.402Z,59.55
2019-04-19T04:42:47.411Z,59.47
2019-04-19T04:46:16.892Z,59.88
2019-04-19T04:48:53.060Z,59.61
2019-04-19T04:54:16.556Z,59.99
2019-04-19T04:59:37.677Z,59.62
2019-04-19T05:02:42.692Z,59.30
2019-04-19T05:05:13.127Z,59.08
2019-04-19T05:08:06.622Z,58.42
2019-04-19T05:10:49.347Z,56.89
2019-04-19T05:13:39.659Z,54.07
2019-04-19T05:19:17.763Z,49.33
2019-04-19T05:22:05.851Z,48.11
2019-04-19T05:25:05.486Z,47.22
2019-04-19T05:27:52.293Z,46.10
2019-04-19T05:29:59.891Z,45.31
2019-04-19T05:32:57.976Z,43.72
2019-04-19T05:35:53.261Z,42.61
2019-04-19T05:44:23.383Z,41.41
2019-04-19T05:52:24.198Z,39.90
2019-04-19T05:54:36.864Z,40.71
2019-04-19T05:57:59.305Z,40.06
2019-04-19T06:00:51.674Z,39.45
2019-04-19T06:03:14.599Z,38.76
2019-04-19T06:06:26.302Z,37.47
2019-04-19T06:08:29.425Z,36.47
2019-04-19T06:10:58.466Z,34.93
2019-04-19T06:13:25.542Z,34.36
2019-04-19T06:16:18.103Z,34.61
2019-04-19T06:18:55.880Z,34.36
2019-04-19T06:21:32.788Z,33.84
2019-04-19T06:24:05.789Z,33.77
2019-04-19T06:31:58.134Z,34.18
2019-04-19T06:36:58.634Z,34.13
2019-04-19T06:39:20.499Z,34.17
2019-04-19T06:41:55.744Z,33.65
2019-04-19T06:44:43.730Z,33.90
2019-04-19T06:47:04.038Z,32.75
2019-04-19T06:49:40.667Z,31.94
2019-04-19T06:52:18.005Z,30.95
2019-04-19T06:55:03.594Z,30.68
2019-04-19T06:58:00.410Z,29.68
2019-04-19T07:01:13.603Z,29.19
2019-04-19T07:03:47.834Z,28.83
2019-04-19T07:06:35.051Z,29.01
2019-04-19T07:12:16.657Z,26.18
2019-04-19T07:14:58.861Z,26.70
2019-04-19T07:17:31.887Z,27.47
2019-04-19T07:22:53.701Z,24.39
2019-04-19T07:26:10.019Z,24.40
2019-04-19T07:28:38.426Z,24.42
2019-04-19T07:31:46.875Z,23.69
2019-04-19T07:34:34.820Z,23.04
2019-04-19T07:37:03.730Z,23.63
2019-04-19T07:39:37.790Z,22.67
2019-04-19T07:42:40.742Z,22.76
2019-04-19T07:47:54.823Z,22.62
2019-04-19T07:51:02.203Z,23.28
2019-04-19T07:56:21.992Z,24.60
2019-04-19T07:59:27.915Z,24.92
2019-04-19T08:09:49.739Z,23.33
2019-04-19T08:12:23.008Z,23.75
2019-04-19T08:15:06.504Z,24.24
2019-04-19T08:30:00.131Z,25.72
2019-04-19T08:32:24.443Z,25.76
2019-04-19T08:35:15.178Z,25.92
2019-04-19T08:38:06.964Z,27.16
2019-04-19T08:40:50.313Z,26.99
2019-04-19T08:43:41.658Z,26.73
2019-04-19T08:46:11.225Z,27.07
2019-04-19T08:49:02.426Z,26.74
2019-04-19T08:54:57.795Z,26.89
2019-04-19T08:57:01.494Z,26.53
2019-04-19T09:00:04.923Z,27.75
2019-04-19T09:02:45.252Z,28.44
2019-04-19T09:08:35.843Z,29.94
2019-04-19T09:11:04.039Z,29.47
2019-04-19T09:13:52.225Z,29.21
2019-04-19T09:16:38.139Z,29.16
2019-04-19T09:19:45.765Z,30.68
2019-04-19T09:22:19.418Z,29.65
2019-04-19T09:24:57.116Z,30.16
2019-04-19T09:27:58.572Z,30.58
2019-04-19T09:31:06.059Z,30.06
2019-04-19T09:33:40.863Z,29.38
2019-04-19T09:36:11.202Z,30.07
2019-04-19T09:38:59.782Z,29.84
2019-04-19T09:41:21.611Z,30.08
2019-04-19T09:43:52.137Z,29.97
2019-04-19T09:46:27.597Z,30.07
2019-04-19T09:49:36.768Z,29.68
2019-04-19T09:52:31.560Z,30.67
2019-04-19T09:54:58.900Z,30.02
2019-04-19T10:00:11.982Z,30.75
2019-04-19T10:02:56.537Z,29.86
2019-04-19T10:05:23.944Z,30.04
2019-04-19T10:08:11.620Z,30.23
2019-04-19T10:10:41.110Z,31.05
2019-04-19T10:18:23.404Z,31.72
2019-04-19T10:21:33.656Z,30.87
2019-04-19T10:24:05.420Z,29.31
2019-04-19T10:26:50.464Z,28.67
2019-04-19T10:32:13.168Z,28.15
2019-04-19T10:34:42.751Z,28.96
2019-04-19T10:37:31.558Z,30.22
2019-04-19T10:44:00.210Z,28.97
2019-04-19T10:49:52.914Z,29.19
2019-04-19T10:52:35.886Z,27.77
2019-04-19T10:55:44.453Z,28.16
2019-04-19T11:03:46.948Z,28.52
2019-04-19T11:09:45.831Z,28.24
2019-04-19T11:17:59.353Z,27.05
2019-04-19T11:20:38.081Z,27.52
2019-04-19T11:23:19.714Z,26.86
2019-04-19T11:31:49.907Z,27.74
2019-04-19T11:36:53.826Z,27.35
2019-04-19T11:39:23.154Z,27.32
2019-04-19T11:41:52.347Z,27.13
2019-04-19T11:44:39.874Z,27.05
2019-04-19T11:47:27.521Z,26.88
2019-04-19T11:55:46.615Z,26.38
2019-04-19T12:01:43.929Z,26.68
2019-04-19T12:04:12.353Z,26.72
2019-04-19T12:06:40.756Z,26.83
2019-04-19T12:09:50.211Z,26.40
2019-04-19T12:12:39.118Z,27.01
2019-04-19T12:15:49.221Z,26.50
2019-04-19T12:18:18.473Z,26.22
2019-04-19T12:20:55.421Z,26.86
2019-04-19T12:23:25.702Z,27.21
2019-04-19T12:28:29.974Z,25.12
2019-04-19T12:31:19.110Z,25.39
2019-04-19T12:34:09.570Z,26.59
2019-04-19T12:39:25.227Z,25.43
2019-04-19T12:41:53.588Z,25.85
2019-04-19T12:44:22.815Z,25.00
2019-04-19T12:47:11.336Z,24.74
2019-04-19T12:49:52.098Z,25.82
2019-04-19T12:52:31.155Z,26.90
2019-04-19T12:55:18.373Z,26.55
2019-04-19T12:58:06.105Z,27.28
2019-04-19T13:01:14.410Z,26.11
2019-04-19T13:07:11.007Z,26.47
2019-04-19T13:09:41.190Z,26.83
2019-04-19T13:12:10.834Z,25.63
2019-04-19T13:14:41.673Z,26.25
2019-04-19T13:17:30.519Z,26.34
2019-04-19T13:20:08.606Z,26.90
2019-04-19T13:22:50.517Z,26.48
2019-04-19T13:25:59.615Z,26.66
2019-04-19T13:31:34.817Z,25.69
2019-04-19T13:34:23.256Z,26.51
2019-04-19T13:40:26.219Z,26.35
2019-04-19T13:43:15.113Z,25.68
2019-04-19T13:48:37.117Z,25.83
2019-04-19T13:54:00.580Z,25.82
2019-04-19T13:56:30.894Z,27.15
2019-04-19T13:59:01.461Z,26.82
2019-04-19T14:01:50.293Z,25.43
2019-04-19T14:07:07.561Z,25.41
2019-04-19T14:09:55.209Z,26.02
2019-04-19T14:14:57.558Z,26.00
2019-04-19T14:20:00.685Z,25.78
2019-04-19T14:22:49.770Z,25.49
2019-04-19T14:25:59.306Z,25.41
2019-04-19T14:28:49.938Z,25.87
2019-04-19T14:31:37.775Z,26.04
2019-04-19T14:34:06.816Z,27.24
2019-04-19T14:36:36.318Z,26.62
2019-04-19T14:39:44.935Z,26.42
2019-04-19T14:42:14.748Z,26.92
2019-04-19T14:44:43.259Z,27.01
2019-04-19T14:47:32.846Z,26.65
2019-04-19T14:50:23.165Z,26.57
2019-04-19T14:53:12.313Z,27.37
2019-04-19T14:55:41.705Z,28.27
2019-04-19T15:03:39.346Z,26.74
2019-04-19T15:08:47.643Z,26.30
2019-04-19T15:11:17.973Z,26.55
2019-04-19T15:13:47.229Z,26.94
2019-04-19T15:18:51.675Z,27.32
2019-04-19T15:21:40.591Z,26.88
2019-04-19T15:24:10.742Z,27.78
2019-04-19T15:26:40.753Z,28.47
2019-04-19T15:29:11.211Z,28.15
2019-04-19T15:32:00.046Z,28.15
2019-04-19T15:34:29.615Z,28.42
2019-04-19T15:39:53.913Z,27.76
2019-04-19T15:42:24.745Z,27.49
2019-04-19T15:45:14.209Z,28.42
2019-04-19T15:47:44.497Z,27.98
2019-04-19T15:51:07.398Z,29.11
2019-04-19T15:53:24.353Z,28.19
2019-04-19T15:56:14.224Z,27.42
2019-04-19T15:59:25.029Z,27.87
2019-04-19T16:02:12.098Z,27.64
2019-04-19T16:05:19.946Z,27.32
2019-04-19T16:08:08.220Z,27.88
2019-04-19T16:11:16.444Z,27.91
2019-04-19T16:14:04.165Z,27.98
2019-04-19T16:16:33.236Z,28.68
2019-04-19T16:19:02.705Z,28.48
2019-04-19T16:21:55.653Z,28.72
2019-04-19T16:24:21.014Z,27.74
2019-04-19T16:26:51.021Z,27.44
2019-04-19T16:29:29.411Z,27.22
2019-04-19T16:32:09.867Z,27.77
2019-04-19T16:34:57.524Z,27.30
2019-04-19T16:37:45.170Z,28.26
2019-04-19T16:40:34.245Z,27.60
2019-04-19T16:43:03.542Z,26.76
2019-04-19T16:46:03.242Z,28.18
2019-04-19T16:48:42.424Z,27.02
2019-04-19T16:51:12.572Z,27.51
2019-04-19T16:53:42.316Z,27.65
2019-04-19T16:56:12.221Z,27.45
2019-04-19T16:59:01.410Z,27.24
2019-04-19T17:04:36.919Z,27.15
2019-04-19T17:07:24.813Z,27.24
2019-04-19T17:12:51.603Z,27.47
2019-04-19T17:15:39.601Z,27.53
2019-04-19T17:18:27.124Z,27.98
2019-04-19T17:21:15.612Z,27.72
2019-04-19T17:24:05.024Z,27.53
2019-04-19T17:26:35.182Z,27.75
2019-04-19T17:29:24.695Z,27.92
2019-04-19T17:32:14.177Z,27.53
2019-04-19T17:34:44.325Z,27.13
2019-04-19T17:37:14.125Z,27.39
2019-04-19T17:39:44.560Z,27.67
2019-04-19T17:42:14.633Z,27.66
2019-04-19T17:47:39.678Z,27.72
2019-04-19T17:50:48.088Z,27.74
2019-04-19T17:53:40.800Z,27.69
2019-04-19T17:56:06.160Z,27.80
2019-04-19T17:58:54.131Z,28.46
2019-04-19T18:01:24.293Z,28.35
2019-04-19T18:06:29.963Z,28.30
2019-04-19T18:09:19.972Z,28.32
2019-04-19T18:11:49.279Z,28.34
2019-04-19T18:14:18.250Z,28.37
2019-04-19T18:16:46.657Z,28.48
2019-04-19T18:19:22.246Z,28.59
2019-04-19T18:21:45.938Z,28.84
2019-04-19T18:24:39.776Z,28.89
2019-04-19T18:27:09.286Z,29.13
2019-04-19T18:29:35.751Z,29.30
2019-04-19T18:34:54.187Z,29.40
2019-04-19T18:37:44.403Z,29.60
2019-04-19T18:40:31.431Z,30.03
2019-04-19T18:43:27.818Z,30.34
2019-04-19T18:45:50.010Z,30.34
2019-04-19T18:48:19.831Z,30.56
2019-04-19T18:50:52.219Z,31.03
2019-04-19T18:53:47.092Z,31.13
2019-04-19T18:56:16.222Z,31.45
2019-04-19T18:58:40.621Z,31.45
2019-04-19T19:01:33.929Z,31.91
2019-04-19T19:04:24.310Z,32.23
2019-04-19T19:06:48.854Z,32.52
2019-04-19T19:12:14.942Z,32.57
2019-04-19T19:15:03.015Z,32.84
2019-04-19T19:17:54.854Z,32.95
2019-04-19T19:21:03.169Z,32.83
2019-04-19T19:26:53.437Z,33.14
2019-04-19T19:29:28.164Z,33.17
2019-04-19T19:32:36.554Z,33.23
2019-04-19T19:35:52.245Z,33.23
2019-04-19T19:38:38.167Z,33.52
2019-04-19T19:42:31.411Z,33.88
2019-04-19T19:44:31.219Z,33.69
2019-04-19T19:47:33.459Z,34.04
2019-04-19T19:49:52.638Z,33.81
2019-04-19T19:52:26.133Z,33.95
2019-04-19T19:55:11.567Z,34.06
2019-04-19T19:57:39.617Z,34.04
2019-04-19T20:00:20.716Z,34.01
2019-04-19T20:03:13.531Z,34.01
2019-04-19T20:05:36.464Z,33.91
2019-04-19T20:08:03.797Z,34.19
2019-04-19T20:10:39.890Z,34.33
2019-04-19T20:13:08.779Z,34.76
2019-04-19T20:15:52.828Z,34.38
2019-04-19T20:18:30.948Z,34.12
2019-04-19T20:20:54.397Z,34.42
2019-04-19T20:23:29.135Z,34.57
2019-04-19T20:26:04.282Z,34.71
2019-04-19T20:28:43.112Z,34.58
2019-04-19T20:31:15.915Z,34.88
2019-04-19T20:34:02.636Z,35.57
2019-04-19T20:36:37.425Z,36.31
2019-04-19T20:39:03.100Z,37.17
2019-04-19T20:41:54.427Z,37.37
2019-04-19T20:44:40.692Z,37.49
2019-04-19T20:46:52.464Z,37.69
2019-04-19T20:49:21.586Z,37.77
2019-04-19T20:52:41.558Z,38.06
2019-04-19T20:55:22.948Z,37.91
2019-04-19T21:00:44.092Z,37.90
2019-04-19T21:03:34.972Z,38.32
2019-04-19T21:06:28.687Z,38.54
2019-04-19T21:08:52.874Z,38.40
2019-04-19T21:11:45.831Z,38.51
2019-04-19T21:14:11.282Z,38.75
2019-04-19T21:16:48.120Z,38.60
2019-04-19T21:19:51.753Z,38.71
2019-04-19T21:22:40.478Z,38.73
2019-04-19T21:25:19.053Z,38.66
2019-04-19T21:27:47.090Z,38.83
2019-04-19T21:30:29.257Z,39.05
2019-04-19T21:33:20.139Z,38.93
2019-04-19T21:36:04.853Z,39.10
2019-04-19T21:38:30.245Z,38.50
2019-04-19T21:41:25.545Z,38.28
2019-04-19T21:43:50.000Z,37.99
2019-04-19T21:46:39.829Z,38.03
2019-04-19T21:49:12.906Z,38.07
2019-04-19T21:51:40.684Z,38.22
2019-04-19T21:54:10.408Z,38.21
2019-04-19T21:56:44.443Z,37.63
2019-04-19T21:59:09.466Z,37.69
2019-04-19T22:02:29.873Z,37.90
2019-04-19T22:04:53.504Z,37.54
2019-04-19T22:07:43.855Z,37.91
2019-04-19T22:10:33.473Z,37.71
2019-04-19T22:13:16.695Z,37.62
2019-04-19T22:16:05.848Z,37.85
2019-04-19T22:18:56.238Z,37.91
2019-04-19T22:21:30.204Z,37.82
2019-04-19T22:23:56.402Z,37.66
2019-04-19T22:26:48.214Z,38.01
2019-04-19T22:29:15.472Z,38.25
2019-04-19T22:32:09.794Z,38.11
2019-04-19T22:34:34.683Z,38.39
2019-04-19T22:37:29.968Z,38.18
2019-04-19T22:40:12.747Z,38.42
2019-04-19T22:43:04.848Z,38.67
2019-04-19T22:45:30.696Z,38.21
2019-04-19T22:48:20.191Z,38.30
2019-04-19T22:53:54.974Z,38.70
2019-04-19T22:56:32.973Z,38.78
2019-04-19T22:58:53.678Z,38.86
2019-04-19T23:01:44.407Z,38.81
2019-04-19T23:04:32.987Z,38.94
2019-04-19T23:07:05.431Z,39.29
2019-04-19T23:09:52.668Z,39.56
2019-04-19T23:20:45.390Z,39.32
2019-04-19T23:23:21.731Z,39.46
2019-04-19T23:26:17.101Z,39.67
2019-04-19T23:28:53.156Z,39.81
2019-04-19T23:34:12.282Z,39.69
2019-04-19T23:36:41.672Z,39.97
2019-04-19T23:39:13.988Z,40.22
2019-04-19T23:41:40.828Z,40.31
2019-04-19T23:44:29.101Z,40.77
2019-04-19T23:47:18.166Z,40.84
2019-04-19T23:50:06.266Z,40.56
2019-04-19T23:52:57.430Z,40.44
2019-04-19T23:58:35.027Z,40.84
